Time;durP1;ratioP1;P1;durP2;ratioP2;P2;SDS_P1;SDS_P2;PMS_P1;PMS_P2;Temp;Humidity;BMP_temperature;BMP_pressure;BME280_temperature;BME280_humidity;BME280_pressure;Samples;Min_cycle;Max_cycle;Signal;HPM_P1;HPM_P2
2023/03/23 00:01:19;;;;;;;7.78;4.25;;;;;;;9.71;100.00;100264.97;5055776;28;20025;-85
2023/03/23 00:03:46;;;;;;;8.93;4.28;;;;;;;9.72;100.00;100257.16;5056192;28;20024;-84
2023/03/23 00:06:17;;;;;;;6.30;4.00;;;;;;;9.77;100.00;100259.59;5055607;28;20135;-85
2023/03/23 00:08:44;;;;;;;6.90;3.97;;;;;;;9.81;100.00;100230.00;5046089;28;20465;-85
2023/03/23 00:11:14;;;;;;;6.07;4.03;;;;;;;9.81;100.00;100224.78;5052168;28;20461;-85
2023/03/23 00:13:41;;;;;;;6.50;4.25;;;;;;;9.80;100.00;100223.06;5055143;28;20017;-84
2023/03/23 00:16:17;;;;;;;7.88;3.97;;;;;;;9.86;100.00;100254.13;5055739;28;20103;-85
2023/03/23 00:18:53;;;;;;;6.38;3.83;;;;;;;9.94;100.00;100256.50;5055608;28;20044;-85
2023/03/23 00:21:20;;;;;;;5.65;3.88;;;;;;;9.96;100.00;100237.31;5053589;28;20047;-85
2023/03/23 00:23:45;;;;;;;7.25;4.00;;;;;;;9.93;100.00;100216.59;5043660;28;20029;-84
2023/03/23 00:26:11;;;;;;;7.45;4.10;;;;;;;9.94;100.00;100227.84;5055824;28;20036;-85
2023/03/23 00:28:38;;;;;;;6.43;3.90;;;;;;;9.92;100.00;100238.31;5054574;28;20531;-84
2023/03/23 00:31:06;;;;;;;6.53;4.20;;;;;;;9.96;100.00;100254.72;5047532;28;20084;-85
2023/03/23 00:33:37;;;;;;;5.60;4.20;;;;;;;9.99;100.00;100244.19;5050003;28;20052;-85
2023/03/23 00:36:04;;;;;;;6.53;4.22;;;;;;;10.03;100.00;100245.81;5048210;28;20104;-85
2023/03/23 00:38:29;;;;;;;7.45;4.30;;;;;;;10.09;100.00;100251.69;5048699;28;20028;-85
2023/03/23 00:40:54;;;;;;;7.57;4.05;;;;;;;10.09;100.00;100243.88;5055799;28;20028;-84
2023/03/23 00:43:24;;;;;;;6.32;4.25;;;;;;;10.09;100.00;100241.25;5054857;28;20433;-85
2023/03/23 00:45:52;;;;;;;8.15;4.10;;;;;;;10.18;100.00;100244.50;5055043;28;20025;-84
2023/03/23 00:48:19;;;;;;;6.93;4.38;;;;;;;10.22;100.00;100233.91;5054737;28;20029;-85
2023/03/23 00:50:44;;;;;;;7.43;4.10;;;;;;;10.19;100.00;100222.75;5055194;28;20082;-84
2023/03/23 00:53:09;;;;;;;7.30;4.60;;;;;;;10.03;100.00;100214.56;5055414;28;20025;-85
2023/03/23 00:55:35;;;;;;;7.22;4.95;;;;;;;10.03;100.00;100233.63;5054235;28;20380;-85
2023/03/23 00:58:00;;;;;;;6.47;4.63;;;;;;;9.97;100.00;100231.25;5054990;28;20096;-85
2023/03/23 01:00:26;;;;;;;8.02;4.57;;;;;;;9.94;100.00;100233.06;5055120;28;20064;-85
2023/03/23 01:02:53;;;;;;;9.05;5.30;;;;;;;9.89;100.00;100228.00;5053202;28;20024;-85
2023/03/23 01:05:18;;;;;;;5.80;4.93;;;;;;;9.84;100.00;100202.13;5054754;28;20104;-85
2023/03/23 01:07:44;;;;;;;8.85;5.82;;;;;;;9.79;100.00;100209.22;5054849;28;20567;-86
2023/03/23 01:10:12;;;;;;;7.32;5.72;;;;;;;9.76;100.00;100211.06;5054336;28;20043;-85
2023/03/23 01:12:38;;;;;;;8.35;5.45;;;;;;;9.72;100.00;100205.09;5054346;28;20021;-86
2023/03/23 01:15:04;;;;;;;8.02;5.50;;;;;;;9.70;100.00;100185.19;5054971;28;20041;-86
2023/03/23 01:17:30;;;;;;;8.07;5.10;;;;;;;9.73;100.00;100179.91;5054034;28;20028;-86
2023/03/23 01:19:56;;;;;;;8.18;5.68;;;;;;;9.71;100.00;100192.97;5050673;28;20473;-85
2023/03/23 01:22:21;;;;;;;7.80;4.97;;;;;;;9.72;100.00;100188.63;5045137;28;20029;-85
2023/03/23 01:24:47;;;;;;;9.00;5.25;;;;;;;9.71;100.00;100182.56;5053539;28;20374;-85
2023/03/23 01:27:12;;;;;;;6.97;5.25;;;;;;;9.76;100.00;100179.81;5054434;28;20104;-84
2023/03/23 01:29:37;;;;;;;9.07;4.70;;;;;;;9.79;100.00;100177.13;5054559;28;20036;-85
2023/03/23 01:32:03;;;;;;;7.20;5.22;;;;;;;9.78;100.00;100172.81;5053903;28;20025;-85
2023/03/23 01:34:28;;;;;;;7.78;4.88;;;;;;;9.86;100.00;100165.63;5054472;28;20386;-84
2023/03/23 01:36:53;;;;;;;6.75;4.80;;;;;;;9.91;100.00;100170.66;5054789;28;20021;-85
2023/03/23 01:39:20;;;;;;;7.25;4.45;;;;;;;9.95;100.00;100182.72;5040070;28;20029;-85
2023/03/23 01:41:45;;;;;;;6.72;4.80;;;;;;;10.04;100.00;100182.44;5054052;28;20128;-85
2023/03/23 01:44:16;;;;;;;6.50;4.03;;;;;;;10.09;100.00;100173.53;5054426;28;20528;-86
2023/03/23 01:46:43;;;;;;;8.02;5.13;;;;;;;10.13;100.00;100184.72;5053195;28;20435;-85
2023/03/23 01:49:13;;;;;;;7.38;5.05;;;;;;;10.19;100.00;100184.53;5054227;28;20067;-85
2023/03/23 01:51:50;;;;;;;6.45;4.63;;;;;;;10.24;100.00;100187.00;5053092;28;20039;-85
2023/03/23 01:54:20;;;;;;;5.40;4.70;;;;;;;10.29;100.00;100187.72;5070942;22;20150;-85
2023/03/23 01:56:58;;;;;;;8.30;4.22;;;;;;;10.34;100.00;100171.94;5094402;28;20024;-85
2023/03/23 01:59:26;;;;;;;6.85;5.22;;;;;;;10.37;100.00;100161.44;5093724;28;20020;-85
2023/03/23 02:01:53;;;;;;;7.78;4.72;;;;;;;10.36;100.00;100155.34;5094221;28;20032;-85
2023/03/23 02:04:19;;;;;;;6.13;4.47;;;;;;;10.46;100.00;100161.09;5094420;28;20024;-85
2023/03/23 02:06:45;;;;;;;7.80;4.57;;;;;;;10.49;100.00;100151.41;5093331;28;20057;-85
2023/03/23 02:09:13;;;;;;;6.90;4.70;;;;;;;10.52;100.00;100135.66;5094258;28;20409;-85
2023/03/23 02:11:39;;;;;;;5.85;4.43;;;;;;;10.61;100.00;100146.69;5093749;28;20486;-85
2023/03/23 02:14:04;;;;;;;7.25;4.68;;;;;;;10.64;100.00;100149.19;5093363;28;20387;-85
2023/03/23 02:16:42;;;;;;;7.30;4.43;;;;;;;10.67;100.00;100138.66;5093576;28;20024;-85
2023/03/23 02:19:30;;;;;;;7.97;4.30;;;;;;;10.65;100.00;100145.69;5093988;28;20536;-84
2023/03/23 02:22:17;;;;;;;5.68;4.32;;;;;;;10.63;100.00;100134.47;5080400;28;20031;-85
2023/03/23 02:25:07;;;;;;;6.45;4.80;;;;;;;10.62;100.00;100137.97;5093346;28;20054;-85
2023/03/23 02:27:44;;;;;;;7.90;4.88;;;;;;;10.62;100.00;100144.03;5083581;28;20012;-84
2023/03/23 02:30:17;;;;;;;8.30;4.18;;;;;;;10.64;100.00;100133.56;5093688;28;20043;-85
2023/03/23 02:32:55;;;;;;;8.35;4.10;;;;;;;10.64;100.00;100144.00;5093509;28;20016;-85
2023/03/23 02:35:29;;;;;;;6.38;4.25;;;;;;;10.62;100.00;100125.78;5092854;28;20028;-85
2023/03/23 02:38:02;;;;;;;6.28;4.10;;;;;;;10.63;100.00;100122.28;5093868;28;20043;-85
2023/03/23 02:40:38;;;;;;;7.35;4.70;;;;;;;10.67;100.00;100128.25;5093566;28;20042;-85
2023/03/23 02:43:09;;;;;;;7.10;4.28;;;;;;;10.64;100.00;100123.97;5093669;28;20032;-85
2023/03/23 02:45:36;;;;;;;6.95;4.30;;;;;;;10.65;100.00;100125.66;5093123;28;20024;-85
2023/03/23 02:48:04;;;;;;;5.95;4.00;;;;;;;10.63;100.00;100127.50;5092953;28;20059;-85
2023/03/23 02:50:31;;;;;;;5.90;3.97;;;;;;;10.61;100.00;100129.31;5092944;28;20032;-85
2023/03/23 02:52:58;;;;;;;5.25;4.35;;;;;;;10.65;100.00;100133.50;5093580;28;20131;-85
2023/03/23 02:55:26;;;;;;;6.35;4.00;;;;;;;10.71;100.00;100129.81;5079885;28;20087;-85
2023/03/23 02:57:53;;;;;;;6.80;4.55;;;;;;;10.78;100.00;100142.59;5090515;28;20020;-85
2023/03/23 03:00:18;;;;;;;6.72;4.03;;;;;;;10.82;100.00;100138.09;5093227;28;20028;-85
2023/03/23 03:02:53;;;;;;;6.55;4.18;;;;;;;10.81;100.00;100125.13;5092374;28;20028;-85
2023/03/23 03:05:44;;;;;;;5.68;4.10;;;;;;;10.87;100.00;100138.81;5093190;28;20016;-84
2023/03/23 03:08:25;;;;;;;5.05;3.90;;;;;;;10.96;100.00;100130.66;5079026;28;20036;-85
2023/03/23 03:10:57;;;;;;;5.72;4.68;;;;;;;11.01;100.00;100149.59;5092429;28;20028;-84
2023/03/23 03:13:35;;;;;;;7.13;4.03;;;;;;;11.00;100.00;100134.00;5092654;28;20026;-85
2023/03/23 03:16:14;;;;;;;7.43;4.00;;;;;;;10.97;100.00;100141.94;5092346;28;20025;-84
2023/03/23 03:19:11;;;;;;;6.53;3.90;;;;;;;10.91;100.00;100137.78;5092789;28;20062;-85
2023/03/23 03:21:41;;;;;;;5.20;3.70;;;;;;;10.87;100.00;100128.38;5092806;28;20048;-85
2023/03/23 03:24:10;;;;;;;5.47;3.72;;;;;;;10.88;100.00;100137.88;5092233;28;20016;-85
2023/03/23 03:26:39;;;;;;;5.30;3.90;;;;;;;10.92;100.00;100139.50;5091648;28;20472;-85
2023/03/23 03:29:05;;;;;;;6.82;4.20;;;;;;;10.90;100.00;100120.44;5092756;28;20024;-85
2023/03/23 03:31:36;;;;;;;6.43;4.00;;;;;;;10.97;100.00;100127.13;5091699;28;20371;-84
2023/03/23 03:34:01;;;;;;;5.47;3.70;;;;;;;10.92;100.00;100125.59;5078545;28;20410;-85
2023/03/23 03:36:34;;;;;;;7.07;4.50;;;;;;;10.99;100.00;100135.75;5092844;28;20460;-85
2023/03/23 03:39:07;;;;;;;5.10;3.85;;;;;;;10.97;100.00;100132.34;5092157;28;20039;-84
2023/03/23 03:41:34;;;;;;;5.35;3.60;;;;;;;11.00;100.00;100145.28;5092681;28;20028;-85
2023/03/23 03:43:59;;;;;;;4.88;3.58;;;;;;;10.95;100.00;100125.47;5091924;28;20055;-84
2023/03/23 03:46:26;;;;;;;5.40;3.30;;;;;;;11.01;100.00;100139.16;5092989;28;20048;-84
2023/03/23 03:48:52;;;;;;;5.03;3.15;;;;;;;11.00;100.00;100134.84;5092620;28;20028;-85
2023/03/23 03:51:18;;;;;;;8.23;3.65;;;;;;;11.07;100.00;100129.41;5091968;28;20470;-84
2023/03/23 03:53:43;;;;;;;5.45;3.67;;;;;;;10.92;100.00;100116.03;5092389;28;20099;-84
2023/03/23 03:56:08;;;;;;;5.40;3.25;;;;;;;10.94;100.00;100121.19;5092196;28;20384;-85
2023/03/23 04:01:10;;;;;;;4.65;3.17;;;;;;;10.83;100.00;100131.16;3338615;26;20060;-84
2023/03/23 04:03:36;;;;;;;6.40;3.15;;;;;;;10.93;100.00;100153.38;5071896;28;20115;-85
2023/03/23 04:06:02;;;;;;;7.78;3.08;;;;;;;10.88;100.00;100153.53;5071395;28;20111;-85
2023/03/23 04:08:28;;;;;;;6.90;2.97;;;;;;;10.98;100.00;100162.72;5072057;28;20021;-84
2023/03/23 04:10:54;;;;;;;8.90;2.75;;;;;;;11.00;100.00;100145.28;5072277;28;20029;-85
2023/03/23 04:13:20;;;;;;;8.60;2.65;;;;;;;11.00;100.00;100158.31;5071705;28;20012;-85
2023/03/23 04:15:47;;;;;;;6.57;2.85;;;;;;;11.03;100.00;100162.59;5071734;28;20513;-84
2023/03/23 04:18:14;;;;;;;7.13;2.40;;;;;;;11.02;100.00;100161.75;5072366;28;20471;-84
2023/03/23 04:20:48;;;;;;;5.50;2.35;;;;;;;10.99;100.00;100155.78;5070913;28;20476;-84
2023/03/23 04:23:19;;;;;;;10.05;2.55;;;;;;;11.01;100.00;100167.84;5072189;28;20028;-85
2023/03/23 04:25:49;;;;;;;8.02;2.45;;;;;;;10.99;100.00;100167.06;5071616;28;20108;-84
2023/03/23 04:28:23;;;;;;;7.88;2.80;;;;;;;10.93;100.00;100159.47;5071327;28;20025;-84
2023/03/23 04:30:52;;;;;;;8.50;2.58;;;;;;;10.93;100.00;100161.22;5059284;28;20048;-85
2023/03/23 04:33:18;;;;;;;7.47;2.40;;;;;;;10.97;100.00;100176.69;5071446;28;20033;-84
2023/03/23 04:35:47;;;;;;;7.63;2.55;;;;;;;10.98;100.00;100175.78;5071749;28;20017;-85
2023/03/23 04:38:14;;;;;;;6.10;2.25;;;;;;;11.02;100.00;100174.78;5073796;28;20024;-84
2023/03/23 04:40:42;;;;;;;7.30;2.30;;;;;;;11.05;100.00;100184.22;5074812;28;20025;-84
2023/03/23 04:43:07;;;;;;;8.75;2.70;;;;;;;10.97;100.00;100166.25;5075613;28;20430;-85
2023/03/23 04:45:34;;;;;;;8.10;2.25;;;;;;;10.98;100.00;100174.94;5075464;28;20017;-84
2023/03/23 04:48:01;;;;;;;7.15;2.63;;;;;;;10.97;100.00;100168.84;5075033;28;20055;-84
2023/03/23 04:50:30;;;;;;;8.77;1.95;;;;;;;10.97;100.00;100176.69;5075313;28;20452;-85
2023/03/23 04:52:57;;;;;;;5.55;2.10;;;;;;;10.91;100.00;100176.06;5075568;28;20465;-84
2023/03/23 04:55:24;;;;;;;5.55;1.90;;;;;;;10.86;100.00;100186.66;5074633;28;20048;-84
2023/03/23 04:57:49;;;;;;;5.70;2.05;;;;;;;10.72;100.00;100168.03;5075328;28;20028;-84
2023/03/23 05:00:16;;;;;;;7.00;1.80;;;;;;;10.66;100.00;100181.25;5075254;28;20045;-84
2023/03/23 05:02:43;;;;;;;5.53;1.98;;;;;;;10.58;100.00;100181.53;5074423;28;20028;-84
2023/03/23 05:05:11;;;;;;;5.30;2.30;;;;;;;10.52;100.00;100177.38;5075118;28;20046;-85
2023/03/23 05:07:38;;;;;;;5.65;2.17;;;;;;;10.50;100.00;100178.34;5074917;28;20028;-84
2023/03/23 05:10:05;;;;;;;5.78;2.03;;;;;;;10.48;100.00;100177.53;5074462;28;20024;-84
2023/03/23 05:12:30;;;;;;;6.45;1.98;;;;;;;10.53;100.00;100180.84;5074742;28;20175;-85
2023/03/23 05:14:56;;;;;;;10.25;2.80;;;;;;;10.51;100.00;100170.47;5074992;28;20487;-84
2023/03/23 05:17:23;;;;;;;8.10;2.05;;;;;;;10.58;100.00;100167.66;5074491;28;20391;-84
2023/03/23 05:19:50;;;;;;;6.00;2.13;;;;;;;10.70;100.00;100185.50;5074584;28;20112;-84
2023/03/23 05:22:16;;;;;;;9.82;2.25;;;;;;;10.68;100.00;100176.84;5074639;28;20384;-84
2023/03/23 05:24:42;;;;;;;4.80;1.70;;;;;;;10.73;100.00;100191.44;5073915;28;20025;-84
2023/03/23 05:27:08;;;;;;;7.82;2.00;;;;;;;10.78;100.00;100183.44;5074743;28;20089;-84
2023/03/23 05:29:35;;;;;;;8.95;2.20;;;;;;;10.81;100.00;100199.00;5074104;28;20035;-84
2023/03/23 05:32:05;;;;;;;8.73;3.15;;;;;;;10.82;100.00;100189.41;5074822;28;20020;-84
2023/03/23 05:34:32;;;;;;;6.22;2.20;;;;;;;10.82;100.00;100198.06;5074533;28;20047;-85
2023/03/23 05:36:59;;;;;;;7.07;2.15;;;;;;;10.74;100.00;100181.88;5073845;28;20468;-84
2023/03/23 05:39:25;;;;;;;9.23;2.58;;;;;;;10.70;100.00;100188.09;5074659;28;20020;-84
2023/03/23 05:41:50;;;;;;;6.80;2.20;;;;;;;10.68;100.00;100197.72;5074537;28;20021;-84
2023/03/23 05:44:15;;;;;;;8.18;3.00;;;;;;;10.61;100.00;100185.78;5073843;28;20028;-84
2023/03/23 05:46:41;;;;;;;5.88;2.58;;;;;;;10.58;100.00;100191.97;5074375;28;20036;-84
2023/03/23 05:49:07;;;;;;;6.03;1.98;;;;;;;10.54;100.00;100195.56;5073679;28;20094;-84
2023/03/23 05:51:32;;;;;;;10.73;2.25;;;;;;;10.51;100.00;100199.13;5073328;28;20430;-84
2023/03/23 05:53:58;;;;;;;7.85;2.30;;;;;;;10.47;100.00;100184.50;5073984;28;20028;-85
2023/03/23 05:56:23;;;;;;;6.13;2.38;;;;;;;10.50;100.00;100189.63;5074310;28;20082;-84
2023/03/23 05:58:49;;;;;;;10.13;2.25;;;;;;;10.53;100.00;100189.53;5073034;28;20100;-84
2023/03/23 06:01:15;;;;;;;5.28;2.30;;;;;;;10.52;100.00;100189.56;5073601;28;20090;-84
2023/03/23 06:03:41;;;;;;;6.90;2.83;;;;;;;10.58;100.00;100198.94;5073974;28;20043;-85
2023/03/23 06:06:11;;;;;;;7.65;2.78;;;;;;;10.57;100.00;100192.03;5073192;28;20456;-84
2023/03/23 06:08:37;;;;;;;8.93;2.90;;;;;;;10.55;100.00;100189.44;5073585;28;20036;-84
2023/03/23 06:11:02;;;;;;;6.97;2.40;;;;;;;10.60;100.00;100191.94;5074105;28;20028;-85
2023/03/23 06:13:28;;;;;;;8.77;2.72;;;;;;;10.60;100.00;100190.16;5072580;28;20099;-85
2023/03/23 06:15:57;;;;;;;5.78;2.28;;;;;;;10.68;100.00;100197.72;5074160;28;20051;-84
2023/03/23 06:18:23;;;;;;;6.53;2.45;;;;;;;10.70;100.00;100208.94;5073929;28;21577;-85
2023/03/23 06:20:49;;;;;;;7.70;2.45;;;;;;;10.77;100.00;100213.03;5072853;28;20112;-85
2023/03/23 06:23:14;;;;;;;6.15;2.30;;;;;;;10.79;100.00;100219.06;5073553;28;20372;-84
2023/03/23 06:25:39;;;;;;;7.00;3.03;;;;;;;10.89;100.00;100230.88;5073067;28;20021;-84
2023/03/23 06:28:05;;;;;;;4.53;2.20;;;;;;;10.90;100.00;100234.34;5073309;28;20376;-83
2023/03/23 06:30:31;;;;;;;7.97;2.35;;;;;;;10.92;100.00;100238.59;5073289;28;20020;-84
2023/03/23 06:32:56;;;;;;;8.32;2.17;;;;;;;10.95;100.00;100245.44;5072636;28;20028;-84
2023/03/23 06:35:22;;;;;;;7.00;2.80;;;;;;;10.97;100.00;100251.47;5073489;28;20032;-83
2023/03/23 06:37:47;;;;;;;8.93;2.63;;;;;;;10.97;100.00;100244.50;5073047;28;20035;-84
2023/03/23 06:40:13;;;;;;;5.78;2.53;;;;;;;10.96;100.00;100247.16;5072702;28;20149;-85
2023/03/23 06:42:38;;;;;;;10.60;2.70;;;;;;;10.97;100.00;100257.53;5073011;28;20068;-84
2023/03/23 06:45:07;;;;;;;8.05;2.25;;;;;;;10.90;100.00;100247.38;5073245;28;20024;-84
2023/03/23 06:47:33;;;;;;;9.50;3.38;;;;;;;10.94;100.00;100257.63;5072049;28;20130;-84
2023/03/23 06:49:58;;;;;;;7.40;2.35;;;;;;;10.87;100.00;100263.97;5073343;28;20451;-84
2023/03/23 06:52:25;;;;;;;6.72;2.28;;;;;;;10.76;100.00;100255.69;5073223;28;20017;-84
2023/03/23 06:54:51;;;;;;;4.78;2.10;;;;;;;10.69;100.00;100247.22;5071996;28;20024;-84
2023/03/23 06:57:18;;;;;;;7.90;2.35;;;;;;;10.65;100.00;100256.00;5072810;28;20469;-84
2023/03/23 06:59:44;;;;;;;5.93;2.10;;;;;;;10.70;100.00;100276.72;5072618;28;20093;-84
2023/03/23 07:02:11;;;;;;;5.88;2.15;;;;;;;10.58;100.00;100288.41;5071312;28;20032;-84
2023/03/23 07:04:38;;;;;;;11.10;2.33;;;;;;;10.39;100.00;100284.66;5072470;28;20048;-84
2023/03/23 07:07:04;;;;;;;10.63;2.20;;;;;;;10.17;100.00;100277.50;5073213;28;20070;-85
2023/03/23 07:09:29;;;;;;;8.00;2.40;;;;;;;10.03;100.00;100285.72;5071995;28;20032;-88
2023/03/23 07:11:54;;;;;;;7.28;2.40;;;;;;;9.92;100.00;100293.00;5072717;28;20028;-89
2023/03/23 07:14:21;;;;;;;10.52;3.58;;;;;;;9.75;100.00;100297.88;5072975;28;20032;-89
2023/03/23 07:16:47;;;;;;;5.13;1.95;;;;;;;9.59;100.00;100303.50;5071810;28;20070;-87
2023/03/23 07:19:12;;;;;;;6.80;2.60;;;;;;;9.37;100.00;100294.56;5072533;28;20029;-89
2023/03/23 07:21:37;;;;;;;11.82;3.05;;;;;;;9.28;100.00;100308.66;5072259;28;20032;-89
2023/03/23 07:24:03;;;;;;;8.80;2.60;;;;;;;9.26;100.00;100323.47;5072298;28;20028;-89
2023/03/23 07:26:28;;;;;;;9.68;3.72;;;;;;;9.20;100.00;100325.38;5072123;28;20054;-87
2023/03/23 07:28:54;;;;;;;8.25;2.72;;;;;;;9.18;100.00;100321.97;5072838;28;20032;-86
2023/03/23 07:31:20;;;;;;;9.18;2.92;;;;;;;9.20;100.00;100330.59;5071779;28;20105;-84
2023/03/23 07:33:45;;;;;;;8.43;3.10;;;;;;;9.13;100.00;100320.34;5072177;28;20028;-84
2023/03/23 07:36:12;;;;;;;8.80;3.38;;;;;;;9.20;100.00;100341.00;5072048;28;20029;-82
2023/03/23 07:38:37;;;;;;;27.80;4.07;;;;;;;9.17;100.00;100341.06;5072085;28;20032;-85
2023/03/23 07:41:03;;;;;;;16.98;3.90;;;;;;;9.17;100.00;100308.09;5072554;28;20029;-82
2023/03/23 07:43:29;;;;;;;9.30;3.78;;;;;;;9.18;100.00;100301.16;5071480;28;20029;-82
2023/03/23 07:45:54;;;;;;;8.30;2.50;;;;;;;9.13;100.00;100315.13;5072405;28;20013;-82
2023/03/23 07:48:20;;;;;;;15.68;3.30;;;;;;;9.18;100.00;100327.16;5072411;28;20468;-83
2023/03/23 07:50:45;;;;;;;9.88;3.47;;;;;;;9.27;100.00;100322.56;5071553;28;20095;-84
2023/03/23 07:53:11;;;;;;;9.10;2.88;;;;;;;9.20;100.00;100318.44;5072410;28;20109;-84
2023/03/23 07:55:37;;;;;;;8.52;2.70;;;;;;;9.26;100.00;100338.22;5072118;28;20491;-85
2023/03/23 07:58:02;;;;;;;10.57;2.75;;;;;;;9.17;100.00;100328.06;5071721;28;20021;-85
2023/03/23 08:00:28;;;;;;;4.93;1.83;;;;;;;9.04;100.00;100341.38;5071778;28;20036;-85
2023/03/23 08:02:56;;;;;;;10.23;2.08;;;;;;;8.96;100.00;100347.63;5072325;28;20016;-85
2023/03/23 08:05:23;;;;;;;4.18;2.10;;;;;;;8.81;100.00;100359.28;5071515;28;20071;-85
2023/03/23 08:07:49;;;;;;;5.63;2.05;;;;;;;8.70;100.00;100361.25;5071898;28;20033;-85
2023/03/23 08:10:17;;;;;;;7.15;1.75;;;;;;;8.56;100.00;100364.19;5071993;28;20436;-85
2023/03/23 08:12:43;;;;;;;4.30;1.85;;;;;;;8.48;100.00;100372.16;5072110;28;20031;-85
2023/03/23 08:15:17;;;;;;;5.25;1.50;;;;;;;8.48;100.00;100384.31;5075968;28;20020;-84
2023/03/23 08:17:43;;;;;;;5.38;1.65;;;;;;;8.40;100.00;100380.13;5076080;28;20064;-85
2023/03/23 08:20:12;;;;;;;6.25;1.65;;;;;;;8.46;100.00;100373.94;5075066;28;20425;-85
2023/03/23 08:22:42;;;;;;;4.22;1.38;;;;;;;8.52;100.00;100379.00;5075607;28;20031;-84
2023/03/23 08:25:10;;;;;;;4.78;1.48;;;;;;;8.54;100.00;100382.41;5075874;28;20025;-84
2023/03/23 08:27:37;;;;;;;8.13;1.80;;;;;;;8.55;100.00;100375.47;5074952;28;20052;-83
2023/03/23 08:30:05;;;;;;;6.57;1.65;;;;;;;8.63;100.00;100378.75;5075526;28;20021;-83
2023/03/23 08:32:31;;;;;;;6.82;1.38;;;;;;;8.64;100.00;100357.94;5074993;28;20031;-83
2023/03/23 08:34:57;;;;;;;3.72;1.33;;;;;;;8.66;100.00;100363.97;5075699;28;20033;-84
2023/03/23 08:37:22;;;;;;;4.95;1.55;;;;;;;8.76;100.00;100368.91;5075754;28;20012;-83
2023/03/23 08:39:54;;;;;;;5.90;1.85;;;;;;;8.81;100.00;100367.06;5074641;28;20031;-83
2023/03/23 08:42:19;;;;;;;6.07;1.67;;;;;;;8.87;100.00;100365.19;5075744;28;20439;-84
2023/03/23 08:44:45;;;;;;;5.35;1.60;;;;;;;8.89;100.00;100349.53;5075039;28;20108;-83
2023/03/23 08:47:10;;;;;;;6.70;1.20;;;;;;;9.06;100.00;100372.56;5074712;28;20025;-84
2023/03/23 08:49:35;;;;;;;4.75;1.33;;;;;;;9.10;100.00;100371.56;5075095;28;20028;-84
2023/03/23 08:52:01;;;;;;;7.82;1.92;;;;;;;9.12;100.00;100377.56;5075243;28;20071;-84
2023/03/23 08:54:27;;;;;;;6.00;1.70;;;;;;;9.16;100.00;100363.63;5074568;28;20487;-84
2023/03/23 08:56:52;;;;;;;6.60;1.80;;;;;;;9.24;100.00;100379.03;5075217;28;20020;-84
2023/03/23 08:59:18;;;;;;;5.65;1.70;;;;;;;9.27;100.00;100368.53;5074962;28;20436;-84
2023/03/23 09:01:43;;;;;;;6.78;2.50;;;;;;;9.29;100.00;100400.59;5074117;28;20064;-85
2023/03/23 09:04:09;;;;;;;4.97;2.03;;;;;;;9.09;100.00;100388.94;5075259;28;20021;-85
2023/03/23 09:06:38;;;;;;;5.80;1.95;;;;;;;9.16;100.00;100384.44;5075036;28;20028;-84
2023/03/23 09:09:08;;;;;;;3.97;1.58;;;;;;;9.17;100.00;100365.31;5074677;28;20070;-83
2023/03/23 09:11:38;;;;;;;8.25;1.80;;;;;;;9.37;100.00;100373.47;5074707;28;20032;-84
2023/03/23 09:14:05;;;;;;;9.15;1.75;;;;;;;9.50;100.00;100376.59;5075366;28;20024;-86
2023/03/23 09:16:32;;;;;;;4.47;1.67;;;;;;;9.57;100.00;100385.09;5074272;28;20021;-86
2023/03/23 09:18:58;;;;;;;5.32;1.80;;;;;;;9.65;100.00;100392.72;5075197;28;20052;-86
2023/03/23 09:21:25;;;;;;;4.65;2.00;;;;;;;9.72;100.00;100389.06;5074624;28;20079;-86
2023/03/23 09:23:51;;;;;;;5.55;1.85;;;;;;;9.67;100.00;100389.16;5073087;28;20420;-86
2023/03/23 09:26:16;;;;;;;4.57;1.50;;;;;;;9.56;100.00;100392.06;5074144;28;20025;-86
2023/03/23 09:28:44;;;;;;;5.50;1.90;;;;;;;9.38;100.00;100376.91;5073842;28;20150;-87
2023/03/23 09:31:10;;;;;;;6.80;2.08;;;;;;;9.40;100.00;100384.69;5074640;28;20742;-86
2023/03/23 09:33:36;;;;;;;6.78;1.80;;;;;;;9.43;100.00;100388.06;5074673;28;20100;-86
2023/03/23 09:36:02;;;;;;;3.28;1.77;;;;;;;9.41;100.00;100382.03;5073754;28;20031;-87
2023/03/23 09:38:32;;;;;;;3.17;1.50;;;;;;;9.39;100.00;100383.84;5074203;28;20054;-87
2023/03/23 09:41:34;;;;;;;4.13;1.45;;;;;;;9.43;100.00;100388.06;5074790;28;20024;-86
2023/03/23 09:44:15;;;;;;;7.15;1.70;;;;;;;9.47;100.00;100388.84;5073904;28;20104;-85
2023/03/23 09:47:06;;;;;;;3.78;2.08;;;;;;;9.55;100.00;100400.75;5074271;28;20021;-88
2023/03/23 09:49:49;;;;;;;5.50;1.80;;;;;;;9.51;100.00;100398.25;5060593;28;20039;-85
2023/03/23 09:52:17;;;;;;;6.43;1.70;;;;;;;9.43;100.00;100395.88;5074330;28;20020;-86
2023/03/23 09:54:46;;;;;;;5.72;2.03;;;;;;;9.49;100.00;100387.91;5074260;28;20270;-86
2023/03/23 09:57:34;;;;;;;6.35;2.05;;;;;;;9.65;100.00;100390.13;5073334;28;20017;-86
2023/03/23 10:00:14;;;;;;;4.88;1.90;;;;;;;9.72;100.00;100392.50;5074090;28;20040;-81
2023/03/23 10:02:55;;;;;;;5.72;1.92;;;;;;;9.78;100.00;100388.88;5073856;28;20112;-85
2023/03/23 10:05:33;;;;;;;8.27;2.20;;;;;;;9.79;100.00;100383.63;5073175;28;20043;-85
2023/03/23 10:08:00;;;;;;;6.95;1.77;;;;;;;9.85;100.00;100385.22;5073717;28;20029;-85
2023/03/23 10:10:45;;;;;;;6.95;1.80;;;;;;;9.88;100.00;100400.75;5074185;28;20024;-84
2023/03/23 10:13:45;;;;;;;6.90;1.80;;;;;;;9.94;100.00;100397.09;5074080;28;20052;-85
2023/03/23 10:16:17;;;;;;;7.40;2.25;;;;;;;10.17;100.00;100389.53;5074055;28;20020;-85
2023/03/23 10:19:07;;;;;;;7.65;2.30;;;;;;;10.28;100.00;100399.66;5072900;28;20017;-84
2023/03/23 10:21:37;;;;;;;5.55;2.00;;;;;;;10.32;100.00;100404.72;5073559;28;20082;-85
2023/03/23 10:24:07;;;;;;;5.47;2.40;;;;;;;10.47;100.00;100410.38;5073558;28;20455;-85
2023/03/23 10:26:44;;;;;;;7.65;2.40;;;;;;;10.72;100.00;100411.31;5072884;28;20027;-84
2023/03/23 10:29:26;;;;;;;6.22;2.25;;;;;;;10.73;100.00;100388.75;5061360;28;20040;-84
2023/03/23 10:32:15;;;;;;;6.95;2.53;;;;;;;11.22;100.00;100406.28;5072697;28;20025;-85
2023/03/23 10:34:44;;;;;;;3.83;2.33;;;;;;;11.34;100.00;100414.59;5073331;28;20384;-84
2023/03/23 10:37:21;;;;;;;6.72;2.35;;;;;;;11.47;100.00;100421.94;5073014;28;20024;-84
2023/03/23 10:39:56;;;;;;;5.97;2.15;;;;;;;11.69;100.00;100416.00;5072388;28;20032;-84
2023/03/23 10:42:24;;;;;;;12.85;7.57;;;;;;;11.76;100.00;100406.19;5073007;28;20031;-85
2023/03/23 10:44:50;;;;;;;10.13;4.60;;;;;;;11.58;100.00;100410.31;5073233;28;20025;-85
2023/03/23 10:47:17;;;;;;;7.60;2.72;;;;;;;11.53;100.00;100410.44;5072073;28;20074;-84
2023/03/23 10:49:50;;;;;;;3.65;2.33;;;;;;;11.57;100.00;100398.13;5073118;28;20029;-85
2023/03/23 10:52:45;;;;;;;10.35;2.63;;;;;;;11.65;100.00;100401.34;5073170;28;20063;-85
2023/03/23 10:55:20;;;;;;;10.20;2.50;;;;;;;11.59;100.00;100412.84;5054791;28;20059;-85
2023/03/23 10:58:00;;;;;;;8.05;3.05;;;;;;;11.64;100.00;100389.19;5072773;28;20052;-85
2023/03/23 11:00:30;;;;;;;6.25;2.03;;;;;;;12.04;100.00;100390.44;5072272;28;20114;-85
2023/03/23 11:03:02;;;;;;;6.00;2.08;;;;;;;12.33;100.00;100400.66;5072739;28;20111;-85
2023/03/23 11:05:35;;;;;;;6.55;2.50;;;;;;;12.56;100.00;100398.91;5072846;28;20054;-85
2023/03/23 11:08:01;;;;;;;5.70;1.90;;;;;;;12.70;100.00;100409.69;5072296;28;20028;-86
2023/03/23 11:10:52;;;;;;;10.07;2.20;;;;;;;12.53;100.00;100394.66;5072839;28;20484;-85
2023/03/23 11:13:21;;;;;;;6.65;2.00;;;;;;;12.59;100.00;100396.19;5072685;28;20025;-85
2023/03/23 11:15:48;;;;;;;7.93;2.35;;;;;;;12.91;100.00;100400.13;5071945;28;20056;-85
2023/03/23 11:18:38;;;;;;;8.40;2.38;;;;;;;13.22;100.00;100401.50;5072872;28;20029;-86
2023/03/23 11:21:05;;;;;;;5.38;2.00;;;;;;;13.19;100.00;100392.00;5072560;28;20459;-85
2023/03/23 11:23:39;;;;;;;6.90;2.00;;;;;;;13.17;100.00;100401.69;5072554;28;20016;-85
2023/03/23 11:26:10;;;;;;;;;;;;;;;13.27;100.00;100408.28;5073085;28;20031;-86
2023/03/23 11:28:49;;;;;;;8.27;2.00;;;;;;;13.50;100.00;100401.22;5071645;28;19924;-85
2023/03/23 11:31:16;;;;;;;3.83;1.70;;;;;;;13.45;100.00;100413.69;5072792;28;20013;-85